sensor_id;sensor_type;location;lat;lon;timestamp;P1;durP1;ratioP1;P2;durP2;ratioP2
12880;SDS011;6508;53.786;9.996;2024-01-07T00:00:33;5.90;;;5.50;;
12880;SDS011;6508;53.786;9.996;2024-01-07T00:03:01;5.70;;;5.40;;
12880;SDS011;6508;53.786;9.996;2024-01-07T00:05:28;5.40;;;5.20;;
12880;SDS011;6508;53.786;9.996;2024-01-07T00:07:59;5.10;;;4.90;;
12880;SDS011;6508;53.786;9.996;2024-01-07T00:10:28;6.07;;;5.83;;
12880;SDS011;6508;53.786;9.996;2024-01-07T00:12:59;5.93;;;5.53;;
12880;SDS011;6508;53.786;9.996;2024-01-07T00:15:27;6.70;;;6.33;;
12880;SDS011;6508;53.786;9.996;2024-01-07T00:17:55;5.87;;;5.57;;
12880;SDS011;6508;53.786;9.996;2024-01-07T00:20:23;6.30;;;5.90;;
12880;SDS011;6508;53.786;9.996;2024-01-07T00:22:50;5.50;;;5.30;;
12880;SDS011;6508;53.786;9.996;2024-01-07T00:25:18;6.80;;;6.50;;
12880;SDS011;6508;53.786;9.996;2024-01-07T00:27:48;6.07;;;5.77;;
12880;SDS011;6508;53.786;9.996;2024-01-07T00:30:17;5.97;;;5.67;;
12880;SDS011;6508;53.786;9.996;2024-01-07T00:32:45;5.90;;;5.70;;
12880;SDS011;6508;53.786;9.996;2024-01-07T00:35:13;6.30;;;5.90;;
12880;SDS011;6508;53.786;9.996;2024-01-07T00:37:44;6.00;;;5.80;;
12880;SDS011;6508;53.786;9.996;2024-01-07T00:40:12;5.80;;;5.60;;
12880;SDS011;6508;53.786;9.996;2024-01-07T00:42:40;6.03;;;5.53;;
12880;SDS011;6508;53.786;9.996;2024-01-07T00:45:10;6.20;;;5.90;;
12880;SDS011;6508;53.786;9.996;2024-01-07T00:47:37;5.90;;;5.60;;
12880;SDS011;6508;53.786;9.996;2024-01-07T00:50:05;6.60;;;6.30;;
12880;SDS011;6508;53.786;9.996;2024-01-07T00:52:34;6.23;;;5.90;;
12880;SDS011;6508;53.786;9.996;2024-01-07T00:55:04;6.20;;;5.80;;
12880;SDS011;6508;53.786;9.996;2024-01-07T00:57:33;6.27;;;5.97;;
12880;SDS011;6508;53.786;9.996;2024-01-07T01:00:04;6.03;;;5.73;;
12880;SDS011;6508;53.786;9.996;2024-01-07T01:02:33;5.97;;;5.67;;
12880;SDS011;6508;53.786;9.996;2024-01-07T01:05:02;6.20;;;5.90;;
12880;SDS011;6508;53.786;9.996;2024-01-07T01:07:30;6.03;;;5.73;;
12880;SDS011;6508;53.786;9.996;2024-01-07T01:10:00;6.07;;;5.67;;
12880;SDS011;6508;53.786;9.996;2024-01-07T01:12:29;5.97;;;5.67;;
12880;SDS011;6508;53.786;9.996;2024-01-07T01:14:57;6.03;;;5.73;;
12880;SDS011;6508;53.786;9.996;2024-01-07T01:17:25;5.50;;;5.20;;
12880;SDS011;6508;53.786;9.996;2024-01-07T01:19:54;6.03;;;5.63;;
12880;SDS011;6508;53.786;9.996;2024-01-07T01:22:21;5.60;;;5.40;;
12880;SDS011;6508;53.786;9.996;2024-01-07T01:24:49;5.70;;;5.50;;
12880;SDS011;6508;53.786;9.996;2024-01-07T01:27:17;5.67;;;5.37;;
12880;SDS011;6508;53.786;9.996;2024-01-07T01:29:45;5.67;;;5.47;;
12880;SDS011;6508;53.786;9.996;2024-01-07T01:32:13;5.80;;;5.60;;
12880;SDS011;6508;53.786;9.996;2024-01-07T01:34:40;5.30;;;5.10;;
12880;SDS011;6508;53.786;9.996;2024-01-07T01:37:10;6.10;;;5.70;;
12880;SDS011;6508;53.786;9.996;2024-01-07T01:39:39;5.47;;;5.17;;
12880;SDS011;6508;53.786;9.996;2024-01-07T01:42:06;5.90;;;5.63;;
12880;SDS011;6508;53.786;9.996;2024-01-07T01:44:34;6.03;;;5.73;;
12880;SDS011;6508;53.786;9.996;2024-01-07T01:47:02;5.80;;;5.60;;
12880;SDS011;6508;53.786;9.996;2024-01-07T01:49:30;5.57;;;5.37;;
12880;SDS011;6508;53.786;9.996;2024-01-07T01:51:58;6.27;;;5.73;;
12880;SDS011;6508;53.786;9.996;2024-01-07T01:54:28;6.00;;;5.70;;
12880;SDS011;6508;53.786;9.996;2024-01-07T01:56:56;6.00;;;5.47;;
12880;SDS011;6508;53.786;9.996;2024-01-07T01:59:24;5.97;;;5.77;;
12880;SDS011;6508;53.786;9.996;2024-01-07T02:01:53;5.93;;;5.63;;
12880;SDS011;6508;53.786;9.996;2024-01-07T02:04:21;5.83;;;5.53;;
12880;SDS011;6508;53.786;9.996;2024-01-07T02:06:49;5.90;;;5.67;;
12880;SDS011;6508;53.786;9.996;2024-01-07T02:09:17;5.80;;;5.60;;
12880;SDS011;6508;53.786;9.996;2024-01-07T02:14:30;5.90;;;5.60;;
12880;SDS011;6508;53.786;9.996;2024-01-07T02:16:58;6.10;;;5.90;;
12880;SDS011;6508;53.786;9.996;2024-01-07T02:19:25;6.57;;;5.87;;
12880;SDS011;6508;53.786;9.996;2024-01-07T02:21:53;6.43;;;6.07;;
12880;SDS011;6508;53.786;9.996;2024-01-07T02:24:22;6.13;;;5.93;;
12880;SDS011;6508;53.786;9.996;2024-01-07T02:26:51;6.50;;;6.10;;
12880;SDS011;6508;53.786;9.996;2024-01-07T02:29:18;6.30;;;6.00;;
12880;SDS011;6508;53.786;9.996;2024-01-07T02:31:46;6.13;;;5.87;;
12880;SDS011;6508;53.786;9.996;2024-01-07T02:34:14;5.63;;;5.37;;
12880;SDS011;6508;53.786;9.996;2024-01-07T02:36:42;5.73;;;5.53;;
12880;SDS011;6508;53.786;9.996;2024-01-07T02:39:10;6.17;;;5.90;;
12880;SDS011;6508;53.786;9.996;2024-01-07T02:41:39;6.23;;;6.00;;
12880;SDS011;6508;53.786;9.996;2024-01-07T02:44:06;6.10;;;5.90;;
12880;SDS011;6508;53.786;9.996;2024-01-07T02:46:38;6.53;;;6.20;;
12880;SDS011;6508;53.786;9.996;2024-01-07T02:49:06;6.40;;;6.00;;
12880;SDS011;6508;53.786;9.996;2024-01-07T02:51:34;6.20;;;6.00;;
12880;SDS011;6508;53.786;9.996;2024-01-07T02:54:01;5.83;;;5.63;;
12880;SDS011;6508;53.786;9.996;2024-01-07T02:56:28;6.43;;;6.13;;
12880;SDS011;6508;53.786;9.996;2024-01-07T02:58:58;6.17;;;5.90;;
12880;SDS011;6508;53.786;9.996;2024-01-07T03:01:26;6.33;;;6.03;;
12880;SDS011;6508;53.786;9.996;2024-01-07T03:03:53;6.20;;;5.97;;
12880;SDS011;6508;53.786;9.996;2024-01-07T03:06:21;5.87;;;5.60;;
12880;SDS011;6508;53.786;9.996;2024-01-07T03:08:49;6.20;;;5.90;;
12880;SDS011;6508;53.786;9.996;2024-01-07T03:11:17;6.07;;;5.77;;
12880;SDS011;6508;53.786;9.996;2024-01-07T03:13:44;6.23;;;6.03;;
12880;SDS011;6508;53.786;9.996;2024-01-07T03:16:19;5.97;;;5.77;;
12880;SDS011;6508;53.786;9.996;2024-01-07T03:18:47;6.27;;;5.97;;
12880;SDS011;6508;53.786;9.996;2024-01-07T03:21:16;6.30;;;6.00;;
12880;SDS011;6508;53.786;9.996;2024-01-07T03:23:44;5.90;;;5.60;;
12880;SDS011;6508;53.786;9.996;2024-01-07T03:26:11;6.33;;;6.10;;
12880;SDS011;6508;53.786;9.996;2024-01-07T03:28:39;6.47;;;6.23;;
12880;SDS011;6508;53.786;9.996;2024-01-07T03:31:07;6.77;;;6.37;;
12880;SDS011;6508;53.786;9.996;2024-01-07T03:33:38;6.00;;;5.70;;
12880;SDS011;6508;53.786;9.996;2024-01-07T03:36:06;6.63;;;6.33;;
12880;SDS011;6508;53.786;9.996;2024-01-07T03:38:34;6.43;;;6.13;;
12880;SDS011;6508;53.786;9.996;2024-01-07T03:41:04;5.93;;;5.73;;
12880;SDS011;6508;53.786;9.996;2024-01-07T03:43:32;6.37;;;6.17;;
12880;SDS011;6508;53.786;9.996;2024-01-07T03:46:00;6.30;;;6.07;;
12880;SDS011;6508;53.786;9.996;2024-01-07T03:48:28;6.77;;;6.50;;
12880;SDS011;6508;53.786;9.996;2024-01-07T03:50:57;6.63;;;6.33;;
12880;SDS011;6508;53.786;9.996;2024-01-07T03:53:25;6.30;;;6.00;;
12880;SDS011;6508;53.786;9.996;2024-01-07T03:55:52;6.83;;;6.40;;
12880;SDS011;6508;53.786;9.996;2024-01-07T03:58:20;6.80;;;6.53;;
12880;SDS011;6508;53.786;9.996;2024-01-07T04:00:48;6.87;;;6.53;;
12880;SDS011;6508;53.786;9.996;2024-01-07T04:03:16;6.70;;;6.30;;
12880;SDS011;6508;53.786;9.996;2024-01-07T04:05:43;6.37;;;6.10;;
12880;SDS011;6508;53.786;9.996;2024-01-07T04:08:13;7.03;;;6.73;;
12880;SDS011;6508;53.786;9.996;2024-01-07T04:10:42;6.70;;;6.50;;
12880;SDS011;6508;53.786;9.996;2024-01-07T04:13:10;6.40;;;6.10;;
12880;SDS011;6508;53.786;9.996;2024-01-07T04:15:37;5.93;;;5.73;;
12880;SDS011;6508;53.786;9.996;2024-01-07T04:18:05;6.43;;;6.23;;
12880;SDS011;6508;53.786;9.996;2024-01-07T04:20:34;6.77;;;6.50;;
12880;SDS011;6508;53.786;9.996;2024-01-07T04:23:01;6.87;;;6.43;;
12880;SDS011;6508;53.786;9.996;2024-01-07T04:25:31;6.43;;;6.13;;
12880;SDS011;6508;53.786;9.996;2024-01-07T04:27:59;6.70;;;6.30;;
12880;SDS011;6508;53.786;9.996;2024-01-07T04:30:27;6.37;;;6.00;;
12880;SDS011;6508;53.786;9.996;2024-01-07T04:32:55;6.60;;;6.30;;
12880;SDS011;6508;53.786;9.996;2024-01-07T04:35:22;6.50;;;6.27;;
12880;SDS011;6508;53.786;9.996;2024-01-07T04:37:50;6.63;;;6.23;;
12880;SDS011;6508;53.786;9.996;2024-01-07T04:40:17;7.23;;;6.87;;
12880;SDS011;6508;53.786;9.996;2024-01-07T04:42:46;6.60;;;6.40;;
12880;SDS011;6508;53.786;9.996;2024-01-07T04:45:15;6.50;;;6.30;;
12880;SDS011;6508;53.786;9.996;2024-01-07T04:47:42;6.80;;;6.40;;
12880;SDS011;6508;53.786;9.996;2024-01-07T04:50:10;7.17;;;6.87;;
12880;SDS011;6508;53.786;9.996;2024-01-07T04:52:38;7.10;;;6.80;;
12880;SDS011;6508;53.786;9.996;2024-01-07T04:55:05;6.80;;;6.40;;
12880;SDS011;6508;53.786;9.996;2024-01-07T04:57:34;7.40;;;7.10;;
12880;SDS011;6508;53.786;9.996;2024-01-07T05:00:03;7.10;;;6.80;;
12880;SDS011;6508;53.786;9.996;2024-01-07T05:02:31;6.50;;;6.20;;
12880;SDS011;6508;53.786;9.996;2024-01-07T05:04:59;6.90;;;6.50;;
12880;SDS011;6508;53.786;9.996;2024-01-07T05:07:26;6.93;;;6.43;;
12880;SDS011;6508;53.786;9.996;2024-01-07T05:09:54;6.83;;;6.53;;
12880;SDS011;6508;53.786;9.996;2024-01-07T05:12:21;6.93;;;6.63;;
12880;SDS011;6508;53.786;9.996;2024-01-07T05:14:51;6.93;;;6.60;;
12880;SDS011;6508;53.786;9.996;2024-01-07T05:17:20;7.03;;;6.70;;
12880;SDS011;6508;53.786;9.996;2024-01-07T05:19:47;7.20;;;6.70;;
12880;SDS011;6508;53.786;9.996;2024-01-07T05:22:16;7.53;;;6.83;;
12880;SDS011;6508;53.786;9.996;2024-01-07T05:24:44;7.10;;;6.67;;
12880;SDS011;6508;53.786;9.996;2024-01-07T05:27:12;7.07;;;6.43;;
12880;SDS011;6508;53.786;9.996;2024-01-07T05:29:40;6.70;;;6.40;;
12880;SDS011;6508;53.786;9.996;2024-01-07T05:32:11;6.67;;;6.37;;
12880;SDS011;6508;53.786;9.996;2024-01-07T05:34:41;6.50;;;6.10;;
12880;SDS011;6508;53.786;9.996;2024-01-07T05:37:08;6.60;;;6.30;;
12880;SDS011;6508;53.786;9.996;2024-01-07T05:39:36;6.60;;;6.20;;
12880;SDS011;6508;53.786;9.996;2024-01-07T05:42:05;6.90;;;6.50;;
12880;SDS011;6508;53.786;9.996;2024-01-07T05:44:32;6.63;;;6.33;;
12880;SDS011;6508;53.786;9.996;2024-01-07T05:47:00;6.03;;;5.73;;
12880;SDS011;6508;53.786;9.996;2024-01-07T05:49:29;6.37;;;6.07;;
12880;SDS011;6508;53.786;9.996;2024-01-07T05:51:58;6.27;;;5.90;;
12880;SDS011;6508;53.786;9.996;2024-01-07T05:54:27;6.27;;;5.87;;
12880;SDS011;6508;53.786;9.996;2024-01-07T05:56:57;6.47;;;6.07;;
12880;SDS011;6508;53.786;9.996;2024-01-07T05:59:25;6.33;;;5.80;;
12880;SDS011;6508;53.786;9.996;2024-01-07T06:01:57;6.20;;;5.80;;
12880;SDS011;6508;53.786;9.996;2024-01-07T06:04:25;7.13;;;6.67;;
12880;SDS011;6508;53.786;9.996;2024-01-07T06:06:52;7.20;;;6.70;;
12880;SDS011;6508;53.786;9.996;2024-01-07T06:09:22;7.40;;;6.50;;
12880;SDS011;6508;53.786;9.996;2024-01-07T06:11:49;6.90;;;6.50;;
12880;SDS011;6508;53.786;9.996;2024-01-07T06:14:17;6.17;;;5.87;;
12880;SDS011;6508;53.786;9.996;2024-01-07T06:16:46;7.07;;;6.50;;
12880;SDS011;6508;53.786;9.996;2024-01-07T06:19:14;7.07;;;6.47;;
12880;SDS011;6508;53.786;9.996;2024-01-07T06:21:42;7.33;;;6.83;;
12880;SDS011;6508;53.786;9.996;2024-01-07T06:24:09;7.10;;;6.00;;
12880;SDS011;6508;53.786;9.996;2024-01-07T06:26:38;6.77;;;6.10;;
12880;SDS011;6508;53.786;9.996;2024-01-07T06:31:36;6.40;;;5.90;;
12880;SDS011;6508;53.786;9.996;2024-01-07T06:34:04;6.43;;;5.83;;
12880;SDS011;6508;53.786;9.996;2024-01-07T06:36:32;6.50;;;5.90;;
12880;SDS011;6508;53.786;9.996;2024-01-07T06:39:00;7.07;;;5.53;;
12880;SDS011;6508;53.786;9.996;2024-01-07T06:41:31;6.30;;;5.70;;
12880;SDS011;6508;53.786;9.996;2024-01-07T06:44:00;6.50;;;6.00;;
12880;SDS011;6508;53.786;9.996;2024-01-07T06:46:28;6.30;;;5.80;;
12880;SDS011;6508;53.786;9.996;2024-01-07T06:48:56;6.40;;;5.90;;
12880;SDS011;6508;53.786;9.996;2024-01-07T06:51:23;6.80;;;6.13;;
12880;SDS011;6508;53.786;9.996;2024-01-07T06:53:51;6.23;;;5.67;;
12880;SDS011;6508;53.786;9.996;2024-01-07T06:56:19;7.60;;;6.83;;
12880;SDS011;6508;53.786;9.996;2024-01-07T06:58:47;8.07;;;6.10;;
12880;SDS011;6508;53.786;9.996;2024-01-07T07:01:19;6.63;;;6.13;;
12880;SDS011;6508;53.786;9.996;2024-01-07T07:03:47;7.13;;;5.67;;
12880;SDS011;6508;53.786;9.996;2024-01-07T07:06:15;6.63;;;5.77;;
12880;SDS011;6508;53.786;9.996;2024-01-07T07:08:43;6.17;;;5.57;;
12880;SDS011;6508;53.786;9.996;2024-01-07T07:11:10;6.00;;;5.60;;
12880;SDS011;6508;53.786;9.996;2024-01-07T07:13:38;6.83;;;6.20;;
12880;SDS011;6508;53.786;9.996;2024-01-07T07:16:06;6.40;;;5.93;;
12880;SDS011;6508;53.786;9.996;2024-01-07T07:18:35;6.77;;;6.17;;
12880;SDS011;6508;53.786;9.996;2024-01-07T07:21:04;8.53;;;6.23;;
12880;SDS011;6508;53.786;9.996;2024-01-07T07:23:32;6.53;;;6.03;;
12880;SDS011;6508;53.786;9.996;2024-01-07T07:25:59;6.30;;;5.80;;
12880;SDS011;6508;53.786;9.996;2024-01-07T07:28:27;6.60;;;5.90;;
12880;SDS011;6508;53.786;9.996;2024-01-07T07:30:54;6.17;;;5.73;;
12880;SDS011;6508;53.786;9.996;2024-01-07T07:33:22;6.73;;;6.23;;
12880;SDS011;6508;53.786;9.996;2024-01-07T07:35:52;6.27;;;5.77;;
12880;SDS011;6508;53.786;9.996;2024-01-07T07:38:19;7.27;;;6.63;;
12880;SDS011;6508;53.786;9.996;2024-01-07T07:40:47;6.70;;;6.13;;
12880;SDS011;6508;53.786;9.996;2024-01-07T07:43:19;6.90;;;6.30;;
12880;SDS011;6508;53.786;9.996;2024-01-07T07:45:47;6.83;;;6.07;;
12880;SDS011;6508;53.786;9.996;2024-01-07T07:48:15;6.90;;;6.40;;
12880;SDS011;6508;53.786;9.996;2024-01-07T07:50:44;7.17;;;6.77;;
12880;SDS011;6508;53.786;9.996;2024-01-07T07:53:13;7.70;;;7.20;;
12880;SDS011;6508;53.786;9.996;2024-01-07T07:55:40;7.67;;;7.10;;
12880;SDS011;6508;53.786;9.996;2024-01-07T07:58:08;7.37;;;6.87;;
12880;SDS011;6508;53.786;9.996;2024-01-07T08:00:36;6.70;;;6.20;;
12880;SDS011;6508;53.786;9.996;2024-01-07T08:03:05;6.80;;;6.20;;
12880;SDS011;6508;53.786;9.996;2024-01-07T08:05:33;6.70;;;6.20;;
12880;SDS011;6508;53.786;9.996;2024-01-07T08:08:00;6.73;;;6.33;;
12880;SDS011;6508;53.786;9.996;2024-01-07T08:10:29;6.70;;;6.20;;
12880;SDS011;6508;53.786;9.996;2024-01-07T08:12:58;6.73;;;6.33;;
12880;SDS011;6508;53.786;9.996;2024-01-07T08:15:26;6.93;;;6.43;;
12880;SDS011;6508;53.786;9.996;2024-01-07T08:17:54;6.80;;;6.40;;
12880;SDS011;6508;53.786;9.996;2024-01-07T08:20:21;7.40;;;6.80;;
12880;SDS011;6508;53.786;9.996;2024-01-07T08:22:49;7.90;;;6.73;;
12880;SDS011;6508;53.786;9.996;2024-01-07T08:25:17;7.43;;;6.83;;
12880;SDS011;6508;53.786;9.996;2024-01-07T08:27:46;7.27;;;6.77;;
12880;SDS011;6508;53.786;9.996;2024-01-07T08:30:18;7.00;;;6.50;;
12880;SDS011;6508;53.786;9.996;2024-01-07T08:32:45;7.03;;;6.53;;
12880;SDS011;6508;53.786;9.996;2024-01-07T08:35:13;7.17;;;6.63;;
12880;SDS011;6508;53.786;9.996;2024-01-07T08:37:45;7.27;;;6.70;;
12880;SDS011;6508;53.786;9.996;2024-01-07T08:40:13;7.93;;;6.30;;
12880;SDS011;6508;53.786;9.996;2024-01-07T08:42:41;6.73;;;6.33;;
12880;SDS011;6508;53.786;9.996;2024-01-07T08:45:10;6.40;;;5.80;;
12880;SDS011;6508;53.786;9.996;2024-01-07T08:47:38;5.80;;;5.40;;
12880;SDS011;6508;53.786;9.996;2024-01-07T08:50:10;6.23;;;5.67;;
12880;SDS011;6508;53.786;9.996;2024-01-07T08:52:39;6.30;;;5.67;;
12880;SDS011;6508;53.786;9.996;2024-01-07T08:55:07;6.97;;;6.27;;
12880;SDS011;6508;53.786;9.996;2024-01-07T08:57:37;6.83;;;6.27;;
12880;SDS011;6508;53.786;9.996;2024-01-07T09:00:06;5.90;;;5.40;;
12880;SDS011;6508;53.786;9.996;2024-01-07T09:02:36;6.23;;;5.90;;
12880;SDS011;6508;53.786;9.996;2024-01-07T09:05:08;5.87;;;5.47;;
12880;SDS011;6508;53.786;9.996;2024-01-07T09:07:36;5.77;;;5.47;;
12880;SDS011;6508;53.786;9.996;2024-01-07T09:10:04;6.97;;;6.47;;
12880;SDS011;6508;53.786;9.996;2024-01-07T09:12:37;5.97;;;5.60;;
12880;SDS011;6508;53.786;9.996;2024-01-07T09:15:05;6.37;;;5.87;;
12880;SDS011;6508;53.786;9.996;2024-01-07T09:17:36;6.00;;;5.60;;
12880;SDS011;6508;53.786;9.996;2024-01-07T09:20:04;6.37;;;5.97;;
12880;SDS011;6508;53.786;9.996;2024-01-07T09:22:34;6.13;;;5.63;;
12880;SDS011;6508;53.786;9.996;2024-01-07T09:25:02;6.33;;;5.83;;
12880;SDS011;6508;53.786;9.996;2024-01-07T09:27:30;5.67;;;5.27;;
12880;SDS011;6508;53.786;9.996;2024-01-07T09:29:57;6.40;;;5.90;;
12880;SDS011;6508;53.786;9.996;2024-01-07T09:32:25;6.90;;;6.30;;
12880;SDS011;6508;53.786;9.996;2024-01-07T09:34:54;6.53;;;6.03;;
12880;SDS011;6508;53.786;9.996;2024-01-07T09:37:22;6.03;;;5.63;;
12880;SDS011;6508;53.786;9.996;2024-01-07T09:39:50;6.37;;;5.87;;
12880;SDS011;6508;53.786;9.996;2024-01-07T09:42:18;6.50;;;6.00;;
12880;SDS011;6508;53.786;9.996;2024-01-07T09:44:45;5.80;;;5.30;;
12880;SDS011;6508;53.786;9.996;2024-01-07T09:47:13;6.20;;;5.80;;
12880;SDS011;6508;53.786;9.996;2024-01-07T09:49:42;7.10;;;6.07;;
12880;SDS011;6508;53.786;9.996;2024-01-07T09:52:11;5.77;;;5.37;;
12880;SDS011;6508;53.786;9.996;2024-01-07T09:54:40;5.77;;;5.47;;
12880;SDS011;6508;53.786;9.996;2024-01-07T09:57:08;6.27;;;5.77;;
12880;SDS011;6508;53.786;9.996;2024-01-07T09:59:36;6.53;;;6.03;;
12880;SDS011;6508;53.786;9.996;2024-01-07T10:02:05;6.23;;;5.83;;
12880;SDS011;6508;53.786;9.996;2024-01-07T10:04:33;6.33;;;5.93;;
12880;SDS011;6508;53.786;9.996;2024-01-07T10:07:01;6.93;;;6.40;;
12880;SDS011;6508;53.786;9.996;2024-01-07T10:09:32;7.30;;;6.80;;
12880;SDS011;6508;53.786;9.996;2024-01-07T10:12:00;6.80;;;6.50;;
12880;SDS011;6508;53.786;9.996;2024-01-07T10:14:31;7.33;;;6.93;;
12880;SDS011;6508;53.786;9.996;2024-01-07T10:16:59;6.83;;;6.53;;
12880;SDS011;6508;53.786;9.996;2024-01-07T10:19:27;7.23;;;6.70;;
12880;SDS011;6508;53.786;9.996;2024-01-07T10:21:59;6.67;;;6.27;;
12880;SDS011;6508;53.786;9.996;2024-01-07T10:24:32;7.30;;;6.77;;
12880;SDS011;6508;53.786;9.996;2024-01-07T10:27:04;7.23;;;6.83;;
12880;SDS011;6508;53.786;9.996;2024-01-07T10:29:31;7.50;;;7.00;;
12880;SDS011;6508;53.786;9.996;2024-01-07T10:31:59;7.43;;;6.83;;
12880;SDS011;6508;53.786;9.996;2024-01-07T10:34:29;8.27;;;7.30;;
12880;SDS011;6508;53.786;9.996;2024-01-07T10:36:58;7.10;;;6.80;;
12880;SDS011;6508;53.786;9.996;2024-01-07T10:39:26;6.90;;;6.53;;
12880;SDS011;6508;53.786;9.996;2024-01-07T10:41:56;7.47;;;7.00;;
12880;SDS011;6508;53.786;9.996;2024-01-07T10:44:25;6.87;;;6.57;;
12880;SDS011;6508;53.786;9.996;2024-01-07T10:46:53;6.80;;;6.40;;
12880;SDS011;6508;53.786;9.996;2024-01-07T10:49:21;7.87;;;7.20;;
12880;SDS011;6508;53.786;9.996;2024-01-07T10:51:55;7.37;;;6.97;;
12880;SDS011;6508;53.786;9.996;2024-01-07T10:54:23;6.90;;;6.50;;
12880;SDS011;6508;53.786;9.996;2024-01-07T10:56:53;7.20;;;6.80;;
12880;SDS011;6508;53.786;9.996;2024-01-07T10:59:26;7.50;;;7.10;;
12880;SDS011;6508;53.786;9.996;2024-01-07T11:01:55;7.23;;;6.93;;
12880;SDS011;6508;53.786;9.996;2024-01-07T11:04:29;7.00;;;6.60;;
12880;SDS011;6508;53.786;9.996;2024-01-07T11:07:03;7.27;;;6.87;;
12880;SDS011;6508;53.786;9.996;2024-01-07T11:09:35;7.03;;;6.73;;
12880;SDS011;6508;53.786;9.996;2024-01-07T11:12:04;6.93;;;6.63;;
12880;SDS011;6508;53.786;9.996;2024-01-07T11:14:38;6.60;;;6.30;;
12880;SDS011;6508;53.786;9.996;2024-01-07T11:17:07;7.57;;;7.07;;
12880;SDS011;6508;53.786;9.996;2024-01-07T11:19:36;6.63;;;6.33;;
12880;SDS011;6508;53.786;9.996;2024-01-07T11:22:20;6.83;;;6.53;;
12880;SDS011;6508;53.786;9.996;2024-01-07T11:24:49;7.10;;;6.70;;
12880;SDS011;6508;53.786;9.996;2024-01-07T11:27:17;6.53;;;6.30;;
12880;SDS011;6508;53.786;9.996;2024-01-07T11:29:53;7.20;;;6.73;;
12880;SDS011;6508;53.786;9.996;2024-01-07T11:32:22;6.90;;;6.60;;
12880;SDS011;6508;53.786;9.996;2024-01-07T11:34:51;6.67;;;6.37;;
12880;SDS011;6508;53.786;9.996;2024-01-07T11:37:20;7.33;;;6.73;;
12880;SDS011;6508;53.786;9.996;2024-01-07T11:39:50;6.83;;;6.43;;
12880;SDS011;6508;53.786;9.996;2024-01-07T11:42:18;6.63;;;6.33;;
12880;SDS011;6508;53.786;9.996;2024-01-07T11:44:46;7.20;;;6.70;;
12880;SDS011;6508;53.786;9.996;2024-01-07T11:47:16;6.87;;;6.40;;
12880;SDS011;6508;53.786;9.996;2024-01-07T11:49:44;7.10;;;6.60;;
12880;SDS011;6508;53.786;9.996;2024-01-07T11:52:12;7.40;;;6.97;;
12880;SDS011;6508;53.786;9.996;2024-01-07T11:54:40;6.00;;;5.70;;
12880;SDS011;6508;53.786;9.996;2024-01-07T11:57:08;5.93;;;5.63;;
12880;SDS011;6508;53.786;9.996;2024-01-07T11:59:37;5.67;;;5.43;;
12880;SDS011;6508;53.786;9.996;2024-01-07T12:02:10;6.73;;;6.30;;
12880;SDS011;6508;53.786;9.996;2024-01-07T12:04:39;5.83;;;5.63;;
12880;SDS011;6508;53.786;9.996;2024-01-07T12:07:07;5.90;;;5.60;;
12880;SDS011;6508;53.786;9.996;2024-01-07T12:09:40;5.97;;;5.70;;
12880;SDS011;6508;53.786;9.996;2024-01-07T12:12:07;6.27;;;5.80;;
12880;SDS011;6508;53.786;9.996;2024-01-07T12:14:35;5.97;;;5.60;;
12880;SDS011;6508;53.786;9.996;2024-01-07T12:17:03;6.33;;;5.93;;
12880;SDS011;6508;53.786;9.996;2024-01-07T12:19:31;6.37;;;6.00;;
12880;SDS011;6508;53.786;9.996;2024-01-07T12:22:04;5.80;;;5.60;;
12880;SDS011;6508;53.786;9.996;2024-01-07T12:24:33;6.40;;;5.90;;
12880;SDS011;6508;53.786;9.996;2024-01-07T12:27:05;6.17;;;5.77;;
12880;SDS011;6508;53.786;9.996;2024-01-07T12:29:33;5.33;;;5.07;;
12880;SDS011;6508;53.786;9.996;2024-01-07T12:32:01;5.63;;;5.23;;
12880;SDS011;6508;53.786;9.996;2024-01-07T12:34:30;5.43;;;5.03;;
12880;SDS011;6508;53.786;9.996;2024-01-07T12:36:58;5.70;;;5.27;;
12880;SDS011;6508;53.786;9.996;2024-01-07T12:39:30;5.40;;;5.20;;
12880;SDS011;6508;53.786;9.996;2024-01-07T12:41:57;5.47;;;5.17;;
12880;SDS011;6508;53.786;9.996;2024-01-07T12:44:26;5.50;;;5.30;;
12880;SDS011;6508;53.786;9.996;2024-01-07T12:46:54;4.80;;;4.60;;
12880;SDS011;6508;53.786;9.996;2024-01-07T12:49:22;5.20;;;5.00;;
12880;SDS011;6508;53.786;9.996;2024-01-07T12:51:50;5.03;;;4.83;;
12880;SDS011;6508;53.786;9.996;2024-01-07T12:54:18;5.27;;;4.97;;
12880;SDS011;6508;53.786;9.996;2024-01-07T12:56:47;4.90;;;4.70;;
12880;SDS011;6508;53.786;9.996;2024-01-07T12:59:15;4.90;;;4.70;;
12880;SDS011;6508;53.786;9.996;2024-01-07T13:01:43;4.60;;;4.40;;
12880;SDS011;6508;53.786;9.996;2024-01-07T13:04:10;5.27;;;4.97;;
12880;SDS011;6508;53.786;9.996;2024-01-07T13:06:39;5.00;;;4.80;;
12880;SDS011;6508;53.786;9.996;2024-01-07T13:09:07;4.77;;;4.57;;
12880;SDS011;6508;53.786;9.996;2024-01-07T13:11:35;5.20;;;4.90;;
12880;SDS011;6508;53.786;9.996;2024-01-07T13:14:04;5.60;;;5.40;;
12880;SDS011;6508;53.786;9.996;2024-01-07T13:16:32;6.10;;;5.80;;
12880;SDS011;6508;53.786;9.996;2024-01-07T13:19:01;6.10;;;5.70;;
12880;SDS011;6508;53.786;9.996;2024-01-07T13:21:30;5.97;;;5.70;;
12880;SDS011;6508;53.786;9.996;2024-01-07T13:24:04;5.97;;;5.77;;
12880;SDS011;6508;53.786;9.996;2024-01-07T13:26:32;6.23;;;6.03;;
12880;SDS011;6508;53.786;9.996;2024-01-07T13:29:00;6.40;;;6.10;;
12880;SDS011;6508;53.786;9.996;2024-01-07T13:31:31;7.23;;;6.93;;
12880;SDS011;6508;53.786;9.996;2024-01-07T13:33:59;6.70;;;6.30;;
12880;SDS011;6508;53.786;9.996;2024-01-07T13:36:27;7.10;;;6.80;;
12880;SDS011;6508;53.786;9.996;2024-01-07T13:38:54;7.03;;;6.63;;
12880;SDS011;6508;53.786;9.996;2024-01-07T13:41:22;6.87;;;6.47;;
12880;SDS011;6508;53.786;9.996;2024-01-07T13:43:51;6.40;;;6.10;;
12880;SDS011;6508;53.786;9.996;2024-01-07T13:46:19;7.70;;;7.30;;
12880;SDS011;6508;53.786;9.996;2024-01-07T13:48:51;8.03;;;7.53;;
12880;SDS011;6508;53.786;9.996;2024-01-07T13:51:19;6.80;;;6.50;;
12880;SDS011;6508;53.786;9.996;2024-01-07T13:53:47;7.33;;;6.93;;
12880;SDS011;6508;53.786;9.996;2024-01-07T13:56:15;7.47;;;7.17;;
12880;SDS011;6508;53.786;9.996;2024-01-07T13:58:43;6.60;;;6.37;;
12880;SDS011;6508;53.786;9.996;2024-01-07T14:01:16;7.33;;;6.90;;
12880;SDS011;6508;53.786;9.996;2024-01-07T14:03:43;7.47;;;7.17;;
12880;SDS011;6508;53.786;9.996;2024-01-07T14:06:13;7.13;;;6.73;;
12880;SDS011;6508;53.786;9.996;2024-01-07T14:08:40;6.57;;;6.37;;
12880;SDS011;6508;53.786;9.996;2024-01-07T14:11:09;7.80;;;7.50;;
12880;SDS011;6508;53.786;9.996;2024-01-07T14:13:36;7.53;;;7.03;;
12880;SDS011;6508;53.786;9.996;2024-01-07T14:16:05;7.63;;;7.30;;
12880;SDS011;6508;53.786;9.996;2024-01-07T14:18:32;7.17;;;6.77;;
12880;SDS011;6508;53.786;9.996;2024-01-07T14:21:00;7.30;;;7.00;;
12880;SDS011;6508;53.786;9.996;2024-01-07T14:23:29;7.40;;;6.80;;
12880;SDS011;6508;53.786;9.996;2024-01-07T14:25:57;7.60;;;7.20;;
12880;SDS011;6508;53.786;9.996;2024-01-07T14:28:25;6.80;;;6.60;;
12880;SDS011;6508;53.786;9.996;2024-01-07T14:30:53;6.70;;;6.40;;
12880;SDS011;6508;53.786;9.996;2024-01-07T14:33:21;6.83;;;6.53;;
12880;SDS011;6508;53.786;9.996;2024-01-07T14:35:48;6.53;;;6.33;;
12880;SDS011;6508;53.786;9.996;2024-01-07T14:38:16;6.80;;;6.47;;
12880;SDS011;6508;53.786;9.996;2024-01-07T14:40:45;7.07;;;6.67;;
12880;SDS011;6508;53.786;9.996;2024-01-07T14:43:13;6.73;;;6.53;;
12880;SDS011;6508;53.786;9.996;2024-01-07T14:45:41;7.50;;;7.20;;
12880;SDS011;6508;53.786;9.996;2024-01-07T14:48:09;11.20;;;10.20;;
12880;SDS011;6508;53.786;9.996;2024-01-07T14:50:37;8.10;;;7.70;;
12880;SDS011;6508;53.786;9.996;2024-01-07T14:53:07;7.50;;;7.13;;
12880;SDS011;6508;53.786;9.996;2024-01-07T14:55:36;10.73;;;9.83;;
12880;SDS011;6508;53.786;9.996;2024-01-07T14:58:05;7.43;;;7.13;;
12880;SDS011;6508;53.786;9.996;2024-01-07T15:00:33;7.10;;;6.80;;
12880;SDS011;6508;53.786;9.996;2024-01-07T15:03:00;7.43;;;7.03;;
12880;SDS011;6508;53.786;9.996;2024-01-07T15:05:28;7.30;;;7.00;;
12880;SDS011;6508;53.786;9.996;2024-01-07T15:07:56;7.27;;;6.97;;
12880;SDS011;6508;53.786;9.996;2024-01-07T15:10:23;7.40;;;7.10;;
12880;SDS011;6508;53.786;9.996;2024-01-07T15:12:52;7.90;;;7.50;;